Jack Northrop Field Hawthorne Municipal Airport
KHHR : now visible

Airfield :











YOU CAN JOIN US ON...

 
LOGIN :

Register | Disclaimer

   EN    FR    IT 

 









Legend :    VFR   Marginal VFR   IFR   Intensive IFR   Very Intensive IFR
Visi :
Ceiling :
>= 8 km
>= 3000ft
5 to 8 km
1000 to 3000 ft
1500m to 5 km
500 to 1000 ft
800 to 1500m
200 to 500 ft
< 800m
< 200 ft
Symbols :   Thunderstorms  Fog  Heavy snow  Heavy precipitations  Wind > 20 kt






- Airport Elevation : 66 ft


KHHR - Jack Northrop Field Hawthorne Municipal

CURRENT METAR :
  • 260753Z AUTO VRB03KT 3SM HZ OVC009 14/11 A3013 RMK AO2 SLP203 T01390106 401890106 $

EXPIRED METARs :
  • 260709Z AUTO 14004KT 3SM HZ OVC009 14/11 A3013 RMK AO2 T01390106 $
  • 260653Z AUTO 00000KT 4SM HZ OVC010 14/11 A3014 RMK AO2 SLP205 T01390111 $
  • 260553Z 00000KT 3SM HZ OVC011 14/11 A3013 RMK AO2 SLP202 T01390106 10161 20133 53016 $

TAF N/A



MET'MAP, your aeronautical weather chart ! - Copyright ORBIFLY December 2007 - Disclaimer

ORBIFLY MET'MAP TEAM :

Programming & Development : Alexandra Zaïnal
Concept & original design : Baudouin d'Aumeries
Assistance for programming : Marc-Olivier Méhu
Technical & hardware support : Manuel Goepfert

Contact : metmap@orbifly.com




SOURCES & CREDITS :

   NOAA       Earth
Advisory